sensor_id;sensor_type;location;lat;lon;timestamp;P1;durP1;ratioP1;P2;durP2;ratioP2
31112;SDS011;17763;48.730;9.136;2023-02-21T00:00:28;4.15;;;3.05;;
31112;SDS011;17763;48.730;9.136;2023-02-21T00:03:12;6.25;;;3.97;;
31112;SDS011;17763;48.730;9.136;2023-02-21T00:05:56;3.30;;;2.80;;
31112;SDS011;17763;48.730;9.136;2023-02-21T00:08:43;4.95;;;3.42;;
31112;SDS011;17763;48.730;9.136;2023-02-21T00:11:27;3.10;;;2.80;;
31112;SDS011;17763;48.730;9.136;2023-02-21T00:14:11;3.22;;;2.95;;
31112;SDS011;17763;48.730;9.136;2023-02-21T00:16:55;5.35;;;3.38;;
31112;SDS011;17763;48.730;9.136;2023-02-21T00:19:39;3.38;;;2.97;;
31112;SDS011;17763;48.730;9.136;2023-02-21T00:22:24;4.40;;;3.10;;
31112;SDS011;17763;48.730;9.136;2023-02-21T00:25:10;2.70;;;2.50;;
31112;SDS011;17763;48.730;9.136;2023-02-21T00:28:02;3.17;;;2.40;;
31112;SDS011;17763;48.730;9.136;2023-02-21T00:30:46;2.90;;;2.40;;
31112;SDS011;17763;48.730;9.136;2023-02-21T00:33:33;3.95;;;2.35;;
31112;SDS011;17763;48.730;9.136;2023-02-21T00:36:18;3.92;;;2.95;;
31112;SDS011;17763;48.730;9.136;2023-02-21T00:39:02;2.13;;;1.95;;
31112;SDS011;17763;48.730;9.136;2023-02-21T00:41:46;7.43;;;3.72;;
31112;SDS011;17763;48.730;9.136;2023-02-21T00:44:33;3.15;;;2.30;;
31112;SDS011;17763;48.730;9.136;2023-02-21T00:47:20;5.18;;;2.50;;
31112;SDS011;17763;48.730;9.136;2023-02-21T00:50:04;3.10;;;2.30;;
31112;SDS011;17763;48.730;9.136;2023-02-21T00:52:51;3.92;;;2.90;;
31112;SDS011;17763;48.730;9.136;2023-02-21T00:55:35;4.28;;;3.10;;
31112;SDS011;17763;48.730;9.136;2023-02-21T00:58:21;2.97;;;2.50;;
31112;SDS011;17763;48.730;9.136;2023-02-21T01:01:06;3.95;;;2.95;;
31112;SDS011;17763;48.730;9.136;2023-02-21T01:03:57;6.82;;;2.50;;
31112;SDS011;17763;48.730;9.136;2023-02-21T01:06:42;2.80;;;2.10;;
31112;SDS011;17763;48.730;9.136;2023-02-21T01:09:28;5.53;;;2.50;;
31112;SDS011;17763;48.730;9.136;2023-02-21T01:12:13;4.28;;;2.60;;
31112;SDS011;17763;48.730;9.136;2023-02-21T01:14:59;2.67;;;2.47;;
31112;SDS011;17763;48.730;9.136;2023-02-21T01:17:43;3.55;;;2.38;;
31112;SDS011;17763;48.730;9.136;2023-02-21T01:20:28;3.47;;;2.20;;
31112;SDS011;17763;48.730;9.136;2023-02-21T01:23:12;3.50;;;2.40;;
31112;SDS011;17763;48.730;9.136;2023-02-21T01:25:58;3.70;;;2.40;;
31112;SDS011;17763;48.730;9.136;2023-02-21T01:28:43;4.20;;;2.50;;
31112;SDS011;17763;48.730;9.136;2023-02-21T01:31:27;3.78;;;2.65;;
31112;SDS011;17763;48.730;9.136;2023-02-21T01:34:11;4.88;;;2.15;;
31112;SDS011;17763;48.730;9.136;2023-02-21T01:36:55;4.15;;;2.20;;
31112;SDS011;17763;48.730;9.136;2023-02-21T01:39:39;3.55;;;2.17;;
31112;SDS011;17763;48.730;9.136;2023-02-21T01:42:23;6.85;;;2.30;;
31112;SDS011;17763;48.730;9.136;2023-02-21T01:48:04;3.00;;;2.40;;
31112;SDS011;17763;48.730;9.136;2023-02-21T01:50:55;4.20;;;2.55;;
31112;SDS011;17763;48.730;9.136;2023-02-21T01:53:40;4.95;;;2.58;;
31112;SDS011;17763;48.730;9.136;2023-02-21T01:56:26;3.15;;;2.85;;
31112;SDS011;17763;48.730;9.136;2023-02-21T01:59:11;4.50;;;2.05;;
31112;SDS011;17763;48.730;9.136;2023-02-21T02:02:08;3.35;;;2.65;;
31112;SDS011;17763;48.730;9.136;2023-02-21T02:04:58;3.80;;;1.88;;
31112;SDS011;17763;48.730;9.136;2023-02-21T02:07:44;2.45;;;2.22;;
31112;SDS011;17763;48.730;9.136;2023-02-21T02:10:28;5.15;;;2.40;;
31112;SDS011;17763;48.730;9.136;2023-02-21T02:13:18;2.60;;;2.40;;
31112;SDS011;17763;48.730;9.136;2023-02-21T02:24:18;6.25;;;2.38;;
31112;SDS011;17763;48.730;9.136;2023-02-21T02:36:08;3.80;;;2.20;;
31112;SDS011;17763;48.730;9.136;2023-02-21T02:38:51;3.90;;;1.95;;
31112;SDS011;17763;48.730;9.136;2023-02-21T02:44:39;2.45;;;1.92;;
31112;SDS011;17763;48.730;9.136;2023-02-21T02:49:35;4.60;;;2.00;;
31112;SDS011;17763;48.730;9.136;2023-02-21T02:52:05;3.55;;;2.20;;
31112;SDS011;17763;48.730;9.136;2023-02-21T02:54:35;3.30;;;2.15;;
31112;SDS011;17763;48.730;9.136;2023-02-21T02:57:02;5.60;;;2.35;;
31112;SDS011;17763;48.730;9.136;2023-02-21T02:59:34;3.15;;;2.20;;
31112;SDS011;17763;48.730;9.136;2023-02-21T03:05:07;3.10;;;2.42;;
31112;SDS011;17763;48.730;9.136;2023-02-21T03:10:47;2.67;;;2.42;;
31112;SDS011;17763;48.730;9.136;2023-02-21T03:13:38;2.30;;;2.10;;
31112;SDS011;17763;48.730;9.136;2023-02-21T03:16:11;3.72;;;2.40;;
31112;SDS011;17763;48.730;9.136;2023-02-21T03:18:56;3.78;;;2.08;;
31112;SDS011;17763;48.730;9.136;2023-02-21T03:21:36;2.25;;;1.85;;
31112;SDS011;17763;48.730;9.136;2023-02-21T03:24:09;2.13;;;1.90;;
31112;SDS011;17763;48.730;9.136;2023-02-21T03:26:37;2.35;;;1.75;;
31112;SDS011;17763;48.730;9.136;2023-02-21T03:29:06;3.67;;;2.03;;
31112;SDS011;17763;48.730;9.136;2023-02-21T03:31:36;2.72;;;2.00;;
31112;SDS011;17763;48.730;9.136;2023-02-21T03:34:07;2.65;;;2.08;;
31112;SDS011;17763;48.730;9.136;2023-02-21T03:36:33;4.95;;;1.90;;
31112;SDS011;17763;48.730;9.136;2023-02-21T03:39:05;6.28;;;1.90;;
31112;SDS011;17763;48.730;9.136;2023-02-21T03:41:35;2.22;;;1.98;;
31112;SDS011;17763;48.730;9.136;2023-02-21T03:44:01;1.63;;;1.42;;
31112;SDS011;17763;48.730;9.136;2023-02-21T03:46:27;1.60;;;1.50;;
31112;SDS011;17763;48.730;9.136;2023-02-21T03:48:52;3.33;;;2.10;;
31112;SDS011;17763;48.730;9.136;2023-02-21T03:51:18;2.85;;;1.80;;
31112;SDS011;17763;48.730;9.136;2023-02-21T03:53:49;3.70;;;1.90;;
31112;SDS011;17763;48.730;9.136;2023-02-21T03:56:14;6.30;;;2.53;;
31112;SDS011;17763;48.730;9.136;2023-02-21T03:58:40;1.70;;;1.60;;
31112;SDS011;17763;48.730;9.136;2023-02-21T04:01:08;2.90;;;2.00;;
31112;SDS011;17763;48.730;9.136;2023-02-21T04:03:33;3.03;;;1.90;;
31112;SDS011;17763;48.730;9.136;2023-02-21T04:05:59;5.47;;;1.90;;
31112;SDS011;17763;48.730;9.136;2023-02-21T04:08:25;2.70;;;2.20;;
31112;SDS011;17763;48.730;9.136;2023-02-21T04:10:50;2.65;;;1.60;;
31112;SDS011;17763;48.730;9.136;2023-02-21T04:13:16;2.25;;;1.77;;
31112;SDS011;17763;48.730;9.136;2023-02-21T04:15:43;2.90;;;2.00;;
31112;SDS011;17763;48.730;9.136;2023-02-21T04:18:09;2.05;;;1.95;;
31112;SDS011;17763;48.730;9.136;2023-02-21T04:20:34;3.42;;;2.03;;
31112;SDS011;17763;48.730;9.136;2023-02-21T04:23:00;4.28;;;2.30;;
31112;SDS011;17763;48.730;9.136;2023-02-21T04:25:26;3.72;;;3.35;;
31112;SDS011;17763;48.730;9.136;2023-02-21T04:27:51;3.90;;;2.05;;
31112;SDS011;17763;48.730;9.136;2023-02-21T04:30:17;3.15;;;2.03;;
31112;SDS011;17763;48.730;9.136;2023-02-21T04:32:43;4.28;;;2.03;;
31112;SDS011;17763;48.730;9.136;2023-02-21T04:35:11;2.58;;;2.03;;
31112;SDS011;17763;48.730;9.136;2023-02-21T04:37:39;7.78;;;2.42;;
31112;SDS011;17763;48.730;9.136;2023-02-21T04:40:05;3.53;;;2.40;;
31112;SDS011;17763;48.730;9.136;2023-02-21T04:42:34;2.88;;;2.10;;
31112;SDS011;17763;48.730;9.136;2023-02-21T04:44:59;2.05;;;1.85;;
31112;SDS011;17763;48.730;9.136;2023-02-21T04:47:25;3.42;;;2.20;;
31112;SDS011;17763;48.730;9.136;2023-02-21T04:49:51;3.88;;;2.53;;
31112;SDS011;17763;48.730;9.136;2023-02-21T04:52:19;5.50;;;2.08;;
31112;SDS011;17763;48.730;9.136;2023-02-21T04:54:45;2.25;;;2.05;;
31112;SDS011;17763;48.730;9.136;2023-02-21T04:57:11;3.17;;;2.40;;
31112;SDS011;17763;48.730;9.136;2023-02-21T04:59:38;4.22;;;2.55;;
31112;SDS011;17763;48.730;9.136;2023-02-21T05:02:03;2.85;;;2.58;;
31112;SDS011;17763;48.730;9.136;2023-02-21T05:04:30;6.13;;;3.15;;
31112;SDS011;17763;48.730;9.136;2023-02-21T05:06:58;2.83;;;2.30;;
31112;SDS011;17763;48.730;9.136;2023-02-21T05:09:24;6.25;;;2.58;;
31112;SDS011;17763;48.730;9.136;2023-02-21T05:11:52;4.28;;;2.35;;
31112;SDS011;17763;48.730;9.136;2023-02-21T05:14:17;3.50;;;2.40;;
31112;SDS011;17763;48.730;9.136;2023-02-21T05:16:43;4.72;;;2.50;;
31112;SDS011;17763;48.730;9.136;2023-02-21T05:19:09;3.72;;;2.58;;
31112;SDS011;17763;48.730;9.136;2023-02-21T05:21:35;3.83;;;2.50;;
31112;SDS011;17763;48.730;9.136;2023-02-21T05:24:03;2.80;;;2.28;;
31112;SDS011;17763;48.730;9.136;2023-02-21T05:26:33;3.10;;;2.53;;
31112;SDS011;17763;48.730;9.136;2023-02-21T05:29:01;4.85;;;2.20;;
31112;SDS011;17763;48.730;9.136;2023-02-21T05:31:27;4.65;;;2.30;;
31112;SDS011;17763;48.730;9.136;2023-02-21T05:33:55;5.22;;;2.53;;
31112;SDS011;17763;48.730;9.136;2023-02-21T05:36:21;3.35;;;2.60;;
31112;SDS011;17763;48.730;9.136;2023-02-21T05:38:50;5.43;;;3.35;;
31112;SDS011;17763;48.730;9.136;2023-02-21T05:41:18;6.43;;;3.58;;
31112;SDS011;17763;48.730;9.136;2023-02-21T05:43:45;6.07;;;2.92;;
31112;SDS011;17763;48.730;9.136;2023-02-21T05:48:54;3.90;;;2.92;;
31112;SDS011;17763;48.730;9.136;2023-02-21T05:51:21;3.47;;;2.80;;
31112;SDS011;17763;48.730;9.136;2023-02-21T05:53:49;9.15;;;4.30;;
31112;SDS011;17763;48.730;9.136;2023-02-21T05:56:16;3.67;;;3.22;;
31112;SDS011;17763;48.730;9.136;2023-02-21T05:58:44;4.57;;;3.42;;
31112;SDS011;17763;48.730;9.136;2023-02-21T06:01:10;8.48;;;3.92;;
31112;SDS011;17763;48.730;9.136;2023-02-21T06:03:36;6.45;;;3.85;;
31112;SDS011;17763;48.730;9.136;2023-02-21T06:06:02;5.38;;;4.15;;
31112;SDS011;17763;48.730;9.136;2023-02-21T06:08:28;4.35;;;3.83;;
31112;SDS011;17763;48.730;9.136;2023-02-21T06:10:56;9.15;;;4.57;;
31112;SDS011;17763;48.730;9.136;2023-02-21T06:13:22;9.77;;;4.30;;
31112;SDS011;17763;48.730;9.136;2023-02-21T06:15:47;6.00;;;4.15;;
31112;SDS011;17763;48.730;9.136;2023-02-21T06:18:15;4.93;;;3.40;;
31112;SDS011;17763;48.730;9.136;2023-02-21T06:20:42;9.85;;;4.45;;
31112;SDS011;17763;48.730;9.136;2023-02-21T06:23:08;8.02;;;4.47;;
31112;SDS011;17763;48.730;9.136;2023-02-21T06:25:34;8.55;;;4.10;;
31112;SDS011;17763;48.730;9.136;2023-02-21T06:27:59;9.48;;;3.67;;
31112;SDS011;17763;48.730;9.136;2023-02-21T06:30:25;6.07;;;4.65;;
31112;SDS011;17763;48.730;9.136;2023-02-21T06:32:51;8.02;;;4.85;;
31112;SDS011;17763;48.730;9.136;2023-02-21T06:35:19;7.28;;;4.20;;
31112;SDS011;17763;48.730;9.136;2023-02-21T06:37:45;4.65;;;3.67;;
31112;SDS011;17763;48.730;9.136;2023-02-21T06:40:13;5.03;;;3.55;;
31112;SDS011;17763;48.730;9.136;2023-02-21T06:42:39;5.97;;;3.30;;
31112;SDS011;17763;48.730;9.136;2023-02-21T06:45:04;7.07;;;3.95;;
31112;SDS011;17763;48.730;9.136;2023-02-21T06:47:30;3.58;;;2.85;;
31112;SDS011;17763;48.730;9.136;2023-02-21T06:49:56;5.70;;;3.75;;
31112;SDS011;17763;48.730;9.136;2023-02-21T06:52:22;4.75;;;3.47;;
31112;SDS011;17763;48.730;9.136;2023-02-21T06:54:51;5.50;;;4.30;;
31112;SDS011;17763;48.730;9.136;2023-02-21T06:57:16;7.20;;;3.95;;
31112;SDS011;17763;48.730;9.136;2023-02-21T06:59:42;8.27;;;4.93;;
31112;SDS011;17763;48.730;9.136;2023-02-21T07:02:14;4.13;;;3.60;;
31112;SDS011;17763;48.730;9.136;2023-02-21T07:04:43;4.32;;;3.33;;
31112;SDS011;17763;48.730;9.136;2023-02-21T07:07:09;5.40;;;3.38;;
31112;SDS011;17763;48.730;9.136;2023-02-21T07:09:35;5.43;;;3.47;;
31112;SDS011;17763;48.730;9.136;2023-02-21T07:12:01;5.35;;;3.55;;
31112;SDS011;17763;48.730;9.136;2023-02-21T07:14:29;4.90;;;2.67;;
31112;SDS011;17763;48.730;9.136;2023-02-21T07:16:55;3.58;;;3.25;;
31112;SDS011;17763;48.730;9.136;2023-02-21T07:19:20;6.30;;;4.25;;
31112;SDS011;17763;48.730;9.136;2023-02-21T07:21:54;10.65;;;4.00;;
31112;SDS011;17763;48.730;9.136;2023-02-21T07:24:19;9.07;;;4.05;;
31112;SDS011;17763;48.730;9.136;2023-02-21T07:26:45;6.95;;;4.75;;
31112;SDS011;17763;48.730;9.136;2023-02-21T07:29:11;9.95;;;5.03;;
31112;SDS011;17763;48.730;9.136;2023-02-21T07:31:39;14.65;;;5.00;;
31112;SDS011;17763;48.730;9.136;2023-02-21T07:34:04;7.68;;;4.63;;
31112;SDS011;17763;48.730;9.136;2023-02-21T07:36:30;8.73;;;4.55;;
31112;SDS011;17763;48.730;9.136;2023-02-21T07:38:56;7.60;;;4.68;;
31112;SDS011;17763;48.730;9.136;2023-02-21T07:41:26;13.55;;;4.38;;
31112;SDS011;17763;48.730;9.136;2023-02-21T07:43:52;7.05;;;4.45;;
31112;SDS011;17763;48.730;9.136;2023-02-21T07:46:17;6.07;;;4.80;;
31112;SDS011;17763;48.730;9.136;2023-02-21T07:48:43;10.68;;;5.90;;
31112;SDS011;17763;48.730;9.136;2023-02-21T07:51:11;14.70;;;6.13;;
31112;SDS011;17763;48.730;9.136;2023-02-21T07:53:37;10.77;;;4.78;;
31112;SDS011;17763;48.730;9.136;2023-02-21T07:56:04;6.55;;;4.35;;
31112;SDS011;17763;48.730;9.136;2023-02-21T07:58:29;8.77;;;4.10;;
31112;SDS011;17763;48.730;9.136;2023-02-21T08:00:58;6.75;;;3.60;;
31112;SDS011;17763;48.730;9.136;2023-02-21T08:03:24;6.22;;;3.80;;
31112;SDS011;17763;48.730;9.136;2023-02-21T08:05:53;7.82;;;4.32;;
31112;SDS011;17763;48.730;9.136;2023-02-21T08:08:18;7.75;;;4.38;;
31112;SDS011;17763;48.730;9.136;2023-02-21T08:10:44;8.88;;;4.55;;
31112;SDS011;17763;48.730;9.136;2023-02-21T08:13:12;17.00;;;5.78;;
31112;SDS011;17763;48.730;9.136;2023-02-21T08:15:38;8.88;;;4.85;;
31112;SDS011;17763;48.730;9.136;2023-02-21T08:18:10;6.40;;;4.68;;
31112;SDS011;17763;48.730;9.136;2023-02-21T08:20:42;8.30;;;4.20;;
31112;SDS011;17763;48.730;9.136;2023-02-21T08:23:08;5.05;;;4.05;;
31112;SDS011;17763;48.730;9.136;2023-02-21T08:25:39;7.00;;;4.38;;
31112;SDS011;17763;48.730;9.136;2023-02-21T08:28:07;6.93;;;3.95;;
31112;SDS011;17763;48.730;9.136;2023-02-21T08:30:34;4.88;;;3.60;;
31112;SDS011;17763;48.730;9.136;2023-02-21T08:33:02;6.18;;;4.18;;
31112;SDS011;17763;48.730;9.136;2023-02-21T08:35:28;6.75;;;3.95;;
31112;SDS011;17763;48.730;9.136;2023-02-21T08:37:59;8.73;;;4.60;;
31112;SDS011;17763;48.730;9.136;2023-02-21T08:40:29;5.70;;;4.10;;
31112;SDS011;17763;48.730;9.136;2023-02-21T08:42:55;6.35;;;4.20;;
31112;SDS011;17763;48.730;9.136;2023-02-21T08:45:25;6.57;;;4.15;;
31112;SDS011;17763;48.730;9.136;2023-02-21T08:47:52;12.25;;;4.25;;
31112;SDS011;17763;48.730;9.136;2023-02-21T08:50:21;5.32;;;4.38;;
31112;SDS011;17763;48.730;9.136;2023-02-21T08:52:54;8.43;;;4.05;;
31112;SDS011;17763;48.730;9.136;2023-02-21T08:55:21;5.75;;;3.25;;
31112;SDS011;17763;48.730;9.136;2023-02-21T08:57:47;9.02;;;4.03;;
31112;SDS011;17763;48.730;9.136;2023-02-21T09:00:15;9.32;;;4.78;;
31112;SDS011;17763;48.730;9.136;2023-02-21T09:02:41;5.70;;;3.92;;
31112;SDS011;17763;48.730;9.136;2023-02-21T09:05:19;5.15;;;3.92;;
31112;SDS011;17763;48.730;9.136;2023-02-21T09:07:52;8.60;;;4.70;;
31112;SDS011;17763;48.730;9.136;2023-02-21T09:10:23;4.63;;;3.90;;
31112;SDS011;17763;48.730;9.136;2023-02-21T09:12:49;6.07;;;4.00;;
31112;SDS011;17763;48.730;9.136;2023-02-21T09:15:15;7.63;;;4.45;;
31112;SDS011;17763;48.730;9.136;2023-02-21T09:17:41;11.63;;;4.57;;
31112;SDS011;17763;48.730;9.136;2023-02-21T09:20:08;7.93;;;3.83;;
31112;SDS011;17763;48.730;9.136;2023-02-21T09:22:35;9.13;;;4.85;;
31112;SDS011;17763;48.730;9.136;2023-02-21T09:25:01;11.30;;;4.80;;
31112;SDS011;17763;48.730;9.136;2023-02-21T09:27:28;6.32;;;4.68;;
31112;SDS011;17763;48.730;9.136;2023-02-21T09:30:06;8.18;;;5.28;;
31112;SDS011;17763;48.730;9.136;2023-02-21T09:32:49;10.48;;;5.40;;
31112;SDS011;17763;48.730;9.136;2023-02-21T09:35:17;15.73;;;5.32;;
31112;SDS011;17763;48.730;9.136;2023-02-21T09:37:43;10.07;;;5.38;;
31112;SDS011;17763;48.730;9.136;2023-02-21T09:43:05;6.68;;;5.20;;
31112;SDS011;17763;48.730;9.136;2023-02-21T09:45:39;9.15;;;4.88;;
31112;SDS011;17763;48.730;9.136;2023-02-21T09:48:07;10.45;;;5.10;;
31112;SDS011;17763;48.730;9.136;2023-02-21T09:53:08;7.85;;;4.38;;
31112;SDS011;17763;48.730;9.136;2023-02-21T09:55:38;10.98;;;5.13;;
31112;SDS011;17763;48.730;9.136;2023-02-21T09:58:08;9.52;;;5.00;;
31112;SDS011;17763;48.730;9.136;2023-02-21T10:00:41;5.90;;;5.03;;
31112;SDS011;17763;48.730;9.136;2023-02-21T10:08:42;5.95;;;3.90;;
31112;SDS011;17763;48.730;9.136;2023-02-21T10:11:24;7.63;;;4.22;;
31112;SDS011;17763;48.730;9.136;2023-02-21T10:14:12;7.15;;;3.55;;
31112;SDS011;17763;48.730;9.136;2023-02-21T10:17:02;4.60;;;3.40;;
31112;SDS011;17763;48.730;9.136;2023-02-21T10:19:38;6.15;;;3.85;;
31112;SDS011;17763;48.730;9.136;2023-02-21T10:22:17;21.00;;;9.27;;
31112;SDS011;17763;48.730;9.136;2023-02-21T10:24:44;8.00;;;4.10;;
31112;SDS011;17763;48.730;9.136;2023-02-21T10:27:24;5.57;;;3.78;;
31112;SDS011;17763;48.730;9.136;2023-02-21T10:32:31;3.42;;;2.75;;
31112;SDS011;17763;48.730;9.136;2023-02-21T10:34:57;6.88;;;3.25;;
31112;SDS011;17763;48.730;9.136;2023-02-21T10:37:35;3.65;;;2.15;;
31112;SDS011;17763;48.730;9.136;2023-02-21T10:45:44;4.15;;;3.08;;
31112;SDS011;17763;48.730;9.136;2023-02-21T10:48:14;4.38;;;3.20;;
31112;SDS011;17763;48.730;9.136;2023-02-21T11:04:39;5.80;;;2.83;;
31112;SDS011;17763;48.730;9.136;2023-02-21T11:06:46;5.43;;;3.30;;
31112;SDS011;17763;48.730;9.136;2023-02-21T11:25:03;4.22;;;2.85;;
31112;SDS011;17763;48.730;9.136;2023-02-21T11:27:30;8.80;;;3.67;;
31112;SDS011;17763;48.730;9.136;2023-02-21T11:30:00;4.78;;;2.72;;
31112;SDS011;17763;48.730;9.136;2023-02-21T11:32:35;3.97;;;2.75;;
31112;SDS011;17763;48.730;9.136;2023-02-21T11:35:07;4.20;;;2.30;;
31112;SDS011;17763;48.730;9.136;2023-02-21T11:45:55;3.58;;;2.80;;
31112;SDS011;17763;48.730;9.136;2023-02-21T11:48:41;2.90;;;2.53;;
31112;SDS011;17763;48.730;9.136;2023-02-21T11:53:43;4.57;;;3.10;;
31112;SDS011;17763;48.730;9.136;2023-02-21T12:01:11;5.75;;;2.83;;
31112;SDS011;17763;48.730;9.136;2023-02-21T12:09:10;6.50;;;3.00;;
31112;SDS011;17763;48.730;9.136;2023-02-21T12:31:13;2.70;;;2.35;;
31112;SDS011;17763;48.730;9.136;2023-02-21T12:36:56;3.03;;;2.13;;
31112;SDS011;17763;48.730;9.136;2023-02-21T12:47:27;7.10;;;2.47;;
31112;SDS011;17763;48.730;9.136;2023-02-21T12:52:43;2.25;;;1.90;;
31112;SDS011;17763;48.730;9.136;2023-02-21T12:55:37;4.68;;;2.63;;
31112;SDS011;17763;48.730;9.136;2023-02-21T13:00:54;2.38;;;1.88;;
31112;SDS011;17763;48.730;9.136;2023-02-21T13:03:39;3.30;;;1.83;;
31112;SDS011;17763;48.730;9.136;2023-02-21T13:14:54;3.13;;;1.45;;
31112;SDS011;17763;48.730;9.136;2023-02-21T13:17:27;2.30;;;1.40;;
31112;SDS011;17763;48.730;9.136;2023-02-21T13:20:04;2.33;;;1.80;;
31112;SDS011;17763;48.730;9.136;2023-02-21T13:28:38;6.95;;;3.92;;
31112;SDS011;17763;48.730;9.136;2023-02-21T13:31:06;4.22;;;2.13;;
31112;SDS011;17763;48.730;9.136;2023-02-21T13:33:43;1.80;;;1.48;;
31112;SDS011;17763;48.730;9.136;2023-02-21T13:36:21;1.48;;;1.38;;
31112;SDS011;17763;48.730;9.136;2023-02-21T13:41:34;3.87;;;1.27;;
31112;SDS011;17763;48.730;9.136;2023-02-21T13:44:26;1.90;;;1.38;;
31112;SDS011;17763;48.730;9.136;2023-02-21T13:47:01;1.40;;;1.25;;
31112;SDS011;17763;48.730;9.136;2023-02-21T14:10:46;1.63;;;1.20;;
31112;SDS011;17763;48.730;9.136;2023-02-21T14:15:45;2.30;;;1.10;;
31112;SDS011;17763;48.730;9.136;2023-02-21T14:18:59;4.28;;;1.20;;
31112;SDS011;17763;48.730;9.136;2023-02-21T14:21:03;1.80;;;1.08;;
31112;SDS011;17763;48.730;9.136;2023-02-21T14:23:44;2.03;;;0.73;;
31112;SDS011;17763;48.730;9.136;2023-02-21T14:34:13;1.85;;;1.10;;
31112;SDS011;17763;48.730;9.136;2023-02-21T14:39:10;0.90;;;0.90;;
31112;SDS011;17763;48.730;9.136;2023-02-21T14:47:38;1.90;;;0.95;;
31112;SDS011;17763;48.730;9.136;2023-02-21T15:04:20;1.17;;;0.82;;
31112;SDS011;17763;48.730;9.136;2023-02-21T15:07:07;1.73;;;0.80;;
31112;SDS011;17763;48.730;9.136;2023-02-21T15:09:45;0.73;;;0.60;;
31112;SDS011;17763;48.730;9.136;2023-02-21T15:12:51;1.23;;;0.93;;
31112;SDS011;17763;48.730;9.136;2023-02-21T15:15:21;1.48;;;0.47;;
31112;SDS011;17763;48.730;9.136;2023-02-21T15:17:53;1.17;;;0.80;;
31112;SDS011;17763;48.730;9.136;2023-02-21T15:20:27;1.33;;;0.73;;
31112;SDS011;17763;48.730;9.136;2023-02-21T15:22:55;0.95;;;0.70;;
31112;SDS011;17763;48.730;9.136;2023-02-21T15:25:26;1.45;;;1.20;;
31112;SDS011;17763;48.730;9.136;2023-02-21T15:27:53;1.05;;;0.80;;
31112;SDS011;17763;48.730;9.136;2023-02-21T15:30:21;0.75;;;0.68;;
31112;SDS011;17763;48.730;9.136;2023-02-21T15:32:56;3.40;;;1.10;;
31112;SDS011;17763;48.730;9.136;2023-02-21T15:35:50;2.78;;;1.30;;
31112;SDS011;17763;48.730;9.136;2023-02-21T15:41:44;1.48;;;1.25;;
31112;SDS011;17763;48.730;9.136;2023-02-21T15:46:56;2.92;;;1.40;;
31112;SDS011;17763;48.730;9.136;2023-02-21T15:49:29;5.07;;;1.67;;
31112;SDS011;17763;48.730;9.136;2023-02-21T15:51:59;3.33;;;1.70;;
31112;SDS011;17763;48.730;9.136;2023-02-21T15:54:27;5.07;;;1.40;;
31112;SDS011;17763;48.730;9.136;2023-02-21T15:57:15;5.30;;;1.50;;
31112;SDS011;17763;48.730;9.136;2023-02-21T15:59:55;2.50;;;1.40;;
31112;SDS011;17763;48.730;9.136;2023-02-21T16:02:41;1.38;;;1.23;;
31112;SDS011;17763;48.730;9.136;2023-02-21T16:05:21;5.68;;;1.83;;
31112;SDS011;17763;48.730;9.136;2023-02-21T16:07:48;4.70;;;2.40;;
31112;SDS011;17763;48.730;9.136;2023-02-21T16:10:18;1.98;;;1.77;;
31112;SDS011;17763;48.730;9.136;2023-02-21T16:12:50;5.43;;;1.63;;
31112;SDS011;17763;48.730;9.136;2023-02-21T16:15:21;6.50;;;1.88;;
31112;SDS011;17763;48.730;9.136;2023-02-21T16:17:51;4.45;;;1.88;;
31112;SDS011;17763;48.730;9.136;2023-02-21T16:20:25;3.67;;;1.52;;
31112;SDS011;17763;48.730;9.136;2023-02-21T16:28:40;1.95;;;1.25;;
31112;SDS011;17763;48.730;9.136;2023-02-21T16:31:13;2.88;;;1.67;;
31112;SDS011;17763;48.730;9.136;2023-02-21T16:33:56;1.65;;;1.55;;
31112;SDS011;17763;48.730;9.136;2023-02-21T16:36:28;4.75;;;1.60;;
31112;SDS011;17763;48.730;9.136;2023-02-21T16:38:56;2.72;;;1.85;;
31112;SDS011;17763;48.730;9.136;2023-02-21T16:41:22;5.30;;;1.60;;
31112;SDS011;17763;48.730;9.136;2023-02-21T16:43:51;2.38;;;1.75;;
31112;SDS011;17763;48.730;9.136;2023-02-21T16:46:24;6.35;;;2.47;;
31112;SDS011;17763;48.730;9.136;2023-02-21T16:48:54;3.03;;;1.80;;
31112;SDS011;17763;48.730;9.136;2023-02-21T16:51:22;2.20;;;1.77;;
31112;SDS011;17763;48.730;9.136;2023-02-21T16:53:57;3.55;;;1.60;;
31112;SDS011;17763;48.730;9.136;2023-02-21T16:56:22;3.58;;;1.90;;
31112;SDS011;17763;48.730;9.136;2023-02-21T16:58:52;2.10;;;1.92;;
31112;SDS011;17763;48.730;9.136;2023-02-21T17:01:23;6.25;;;2.15;;
31112;SDS011;17763;48.730;9.136;2023-02-21T17:03:51;2.72;;;1.85;;
31112;SDS011;17763;48.730;9.136;2023-02-21T17:06:21;5.25;;;2.15;;
31112;SDS011;17763;48.730;9.136;2023-02-21T17:08:51;3.75;;;2.20;;
31112;SDS011;17763;48.730;9.136;2023-02-21T17:11:16;3.15;;;2.25;;
31112;SDS011;17763;48.730;9.136;2023-02-21T17:13:44;2.53;;;2.13;;
31112;SDS011;17763;48.730;9.136;2023-02-21T17:16:13;2.50;;;2.10;;
31112;SDS011;17763;48.730;9.136;2023-02-21T17:18:39;4.90;;;2.20;;
31112;SDS011;17763;48.730;9.136;2023-02-21T17:21:04;6.88;;;2.10;;
31112;SDS011;17763;48.730;9.136;2023-02-21T17:23:30;4.90;;;2.28;;
31112;SDS011;17763;48.730;9.136;2023-02-21T17:25:56;4.22;;;2.10;;
31112;SDS011;17763;48.730;9.136;2023-02-21T17:28:21;2.63;;;2.30;;
31112;SDS011;17763;48.730;9.136;2023-02-21T17:30:47;3.28;;;2.35;;
31112;SDS011;17763;48.730;9.136;2023-02-21T17:33:13;5.90;;;2.33;;
31112;SDS011;17763;48.730;9.136;2023-02-21T17:35:39;6.13;;;3.05;;
31112;SDS011;17763;48.730;9.136;2023-02-21T17:38:05;2.63;;;2.35;;
31112;SDS011;17763;48.730;9.136;2023-02-21T17:40:33;6.53;;;2.53;;
31112;SDS011;17763;48.730;9.136;2023-02-21T17:43:02;3.00;;;2.63;;
31112;SDS011;17763;48.730;9.136;2023-02-21T17:45:34;7.03;;;2.72;;
31112;SDS011;17763;48.730;9.136;2023-02-21T17:48:03;9.00;;;3.20;;
31112;SDS011;17763;48.730;9.136;2023-02-21T17:50:35;6.07;;;2.90;;
31112;SDS011;17763;48.730;9.136;2023-02-21T17:53:01;2.70;;;2.50;;
31112;SDS011;17763;48.730;9.136;2023-02-21T17:55:29;9.15;;;2.65;;
31112;SDS011;17763;48.730;9.136;2023-02-21T17:57:56;4.45;;;2.35;;
31112;SDS011;17763;48.730;9.136;2023-02-21T18:00:23;4.50;;;2.75;;
31112;SDS011;17763;48.730;9.136;2023-02-21T18:02:53;6.75;;;2.97;;
31112;SDS011;17763;48.730;9.136;2023-02-21T18:05:23;6.32;;;3.08;;
31112;SDS011;17763;48.730;9.136;2023-02-21T18:07:49;8.13;;;3.72;;
31112;SDS011;17763;48.730;9.136;2023-02-21T18:10:17;7.15;;;3.50;;
31112;SDS011;17763;48.730;9.136;2023-02-21T18:12:44;5.20;;;3.50;;
31112;SDS011;17763;48.730;9.136;2023-02-21T18:15:10;6.97;;;3.40;;
31112;SDS011;17763;48.730;9.136;2023-02-21T18:17:36;6.40;;;3.13;;
31112;SDS011;17763;48.730;9.136;2023-02-21T18:20:02;4.05;;;3.30;;
31112;SDS011;17763;48.730;9.136;2023-02-21T18:22:28;3.60;;;3.13;;
31112;SDS011;17763;48.730;9.136;2023-02-21T18:24:56;4.72;;;3.58;;
31112;SDS011;17763;48.730;9.136;2023-02-21T18:27:22;4.22;;;3.00;;
31112;SDS011;17763;48.730;9.136;2023-02-21T18:29:48;6.47;;;3.25;;
31112;SDS011;17763;48.730;9.136;2023-02-21T18:32:18;7.80;;;3.23;;
31112;SDS011;17763;48.730;9.136;2023-02-21T18:34:44;7.03;;;3.20;;
31112;SDS011;17763;48.730;9.136;2023-02-21T18:37:09;6.00;;;2.78;;
31112;SDS011;17763;48.730;9.136;2023-02-21T18:39:35;3.75;;;2.88;;
31112;SDS011;17763;48.730;9.136;2023-02-21T18:42:00;6.80;;;3.40;;
31112;SDS011;17763;48.730;9.136;2023-02-21T18:44:26;4.65;;;2.80;;
31112;SDS011;17763;48.730;9.136;2023-02-21T18:46:52;5.20;;;2.90;;
31112;SDS011;17763;48.730;9.136;2023-02-21T18:49:20;4.55;;;2.90;;
31112;SDS011;17763;48.730;9.136;2023-02-21T18:51:48;5.32;;;3.75;;
31112;SDS011;17763;48.730;9.136;2023-02-21T18:54:15;6.20;;;3.03;;
31112;SDS011;17763;48.730;9.136;2023-02-21T18:56:45;5.57;;;3.00;;
31112;SDS011;17763;48.730;9.136;2023-02-21T18:59:13;6.15;;;3.50;;